Time;durP1;ratioP1;P1;durP2;ratioP2;P2;SDS_P1;SDS_P2;PMS_P1;PMS_P2;Temp;Humidity;BMP_temperature;BMP_pressure;BME280_temperature;BME280_humidity;BME280_pressure;Samples;Min_cycle;Max_cycle;Signal;HPM_P1;HPM_P2
2022/11/10 05:05:59;;;;;;;2.30;2.10;;;10.30;99.90;;;;;;5010505;28;21450;-65
2022/11/10 05:08:28;;;;;;;9.63;2.33;;;10.20;99.90;;;;;;5014685;28;20174;-64
2022/11/10 05:10:57;;;;;;;1.95;1.80;;;10.10;99.90;;;;;;5014563;28;20368;-65
2022/11/10 05:13:22;;;;;;;2.70;2.20;;;10.10;99.90;;;;;;5012607;28;20595;-65
2022/11/10 05:15:48;;;;;;;2.67;2.47;;;10.00;99.90;;;;;;5004967;28;20227;-64
2022/11/10 05:18:15;;;;;;;2.40;2.10;;;9.90;99.90;;;;;;5002901;28;20329;-65
2022/11/10 05:20:40;;;;;;;5.97;2.10;;;9.80;99.90;;;;;;5014672;28;20175;-64
2022/11/10 05:25:50;;;;;;;2.58;2.00;;;9.70;99.90;;;;;;5014364;28;20535;-65
2022/11/10 05:28:15;;;;;;;2.67;2.47;;;9.60;99.90;;;;;;5007678;28;20171;-65
2022/11/10 05:30:42;;;;;;;1.87;1.77;;;9.50;99.90;;;;;;5004827;28;20253;-65
2022/11/10 05:33:08;;;;;;;2.90;2.25;;;9.50;99.90;;;;;;5013401;28;20171;-66
2022/11/10 05:35:34;;;;;;;2.43;2.07;;;9.40;99.90;;;;;;5013511;28;20288;-64
2022/11/10 05:38:00;;;;;;;1.95;1.75;;;9.40;99.90;;;;;;5014174;28;20206;-64
2022/11/10 05:40:26;;;;;;;2.63;2.40;;;9.30;99.90;;;;;;5014036;28;20174;-65
2022/11/10 05:42:55;;;;;;;2.63;2.42;;;9.20;99.90;;;;;;5012073;28;20170;-64
2022/11/10 05:45:23;;;;;;;1.80;1.70;;;9.20;99.90;;;;;;5000152;28;20195;-65
2022/11/10 05:47:49;;;;;;;3.75;2.40;;;9.20;99.90;;;;;;4994181;28;20172;-64
2022/11/10 05:50:16;;;;;;;6.55;4.97;;;9.10;99.90;;;;;;4994177;28;20182;-64
2022/11/10 05:52:47;;;;;;;13.05;5.82;;;9.10;99.90;;;;;;4993937;28;20574;-65
2022/11/10 05:55:13;;;;;;;8.30;4.65;;;9.10;99.90;;;;;;5004263;28;20645;-65
2022/11/10 05:57:46;;;;;;;2.92;2.63;;;9.10;99.90;;;;;;5013705;28;20234;-65
2022/11/10 06:00:17;;;;;;;2.92;2.60;;;9.00;99.90;;;;;;5013582;28;20530;-64
2022/11/10 06:02:43;;;;;;;5.35;2.80;;;9.00;99.90;;;;;;5012899;28;20220;-64
2022/11/10 06:05:10;;;;;;;2.63;2.47;;;9.00;99.90;;;;;;5000530;28;20282;-66
2022/11/10 06:07:37;;;;;;;2.70;2.50;;;9.00;99.90;;;;;;4993887;28;20175;-64
2022/11/10 06:22:09;;;;;;;3.88;3.47;;;8.90;99.90;;;;;;5101524;27;20979;-64
2022/11/10 06:24:35;;;;;;;8.63;3.20;;;9.00;99.90;;;;;;5090419;28;20180;-66
2022/11/10 06:27:00;;;;;;;2.87;2.63;;;9.00;99.90;;;;;;5090079;28;20218;-65
2022/11/10 06:29:26;;;;;;;2.23;2.13;;;9.00;99.90;;;;;;5089929;28;20176;-64
2022/11/10 06:31:51;;;;;;;3.20;2.50;;;9.00;99.90;;;;;;5089647;28;20663;-64
2022/11/10 06:34:20;;;;;;;2.90;2.60;;;9.00;99.90;;;;;;5075845;28;20194;-67
2022/11/10 06:36:45;;;;;;;3.95;3.10;;;9.00;99.90;;;;;;5069517;28;20239;-65
2022/11/10 06:39:15;;;;;;;3.30;3.00;;;9.00;99.90;;;;;;5087332;28;20635;-66
2022/11/10 06:41:40;;;;;;;4.45;4.07;;;9.00;99.90;;;;;;5087677;28;20657;-67
2022/11/10 06:44:06;;;;;;;5.03;2.50;;;9.10;99.90;;;;;;5087337;28;20259;-68
2022/11/10 06:46:31;;;;;;;2.83;2.63;;;9.10;99.90;;;;;;5089088;28;20635;-67
2022/11/10 06:48:57;;;;;;;4.37;3.40;;;9.20;99.90;;;;;;5089502;28;20176;-69
2022/11/10 06:51:23;;;;;;;3.50;3.20;;;9.30;99.90;;;;;;5089219;28;20658;-69
2022/11/10 06:53:48;;;;;;;6.77;4.20;;;9.40;99.90;;;;;;5089343;28;20176;-68
2022/11/10 06:56:14;;;;;;;3.93;3.43;;;9.40;99.90;;;;;;5089957;28;20527;-69
2022/11/10 06:58:39;;;;;;;7.77;3.60;;;9.60;99.90;;;;;;5089656;28;20168;-69
2022/11/10 07:01:05;;;;;;;4.60;4.10;;;9.90;99.90;;;;;;5089052;28;20169;-68
2022/11/10 07:03:30;;;;;;;4.13;3.80;;;10.20;99.90;;;;;;5088985;28;20601;-69
2022/11/10 07:05:57;;;;;;;4.27;3.43;;;10.40;99.90;;;;;;5089158;28;20185;-69
2022/11/10 07:08:23;;;;;;;5.85;4.20;;;10.60;99.90;;;;;;5089358;28;20171;-70
2022/11/10 07:10:54;;;;;;;3.10;2.77;;;10.70;99.90;;;;;;5088936;28;20618;-71
2022/11/10 07:13:21;;;;;;;4.17;3.20;;;10.80;99.90;;;;;;5088892;28;20177;-70
2022/11/10 07:15:46;;;;;;;3.60;3.30;;;10.80;99.90;;;;;;5087909;28;20448;-70
2022/11/10 07:18:12;;;;;;;5.33;3.30;;;10.90;99.90;;;;;;5087142;28;20805;-68
2022/11/10 07:20:38;;;;;;;5.67;4.13;;;11.00;99.90;;;;;;5088192;28;20435;-68
2022/11/10 07:23:06;;;;;;;4.40;3.83;;;11.30;99.90;;;;;;5075421;28;20461;-69
2022/11/10 07:25:35;;;;;;;9.23;6.63;;;11.50;99.90;;;;;;5075492;28;20666;-70
2022/11/10 07:28:03;;;;;;;7.83;6.70;;;11.80;99.90;;;;;;5075578;28;20447;-70
2022/11/10 07:30:30;;;;;;;6.13;5.23;;;12.20;99.90;;;;;;5075487;28;20464;-69
2022/11/10 07:33:13;;;;;;;5.50;4.87;;;12.60;99.90;;;;;;5073445;28;20579;-69
2022/11/10 07:35:39;;;;;;;5.33;4.80;;;12.80;99.90;;;;;;5075200;28;20464;-69
2022/11/10 07:38:13;;;;;;;8.03;7.40;;;12.80;99.90;;;;;;5075064;28;20809;-69
2022/11/10 07:40:51;;;;;;;9.57;6.10;;;12.90;99.90;;;;;;5074875;28;20442;-70
2022/11/10 07:43:16;;;;;;;5.93;5.10;;;13.00;99.90;;;;;;5075110;28;20422;-71
2022/11/10 07:45:42;;;;;;;7.43;6.37;;;13.20;99.90;;;;;;5075549;28;20403;-70
2022/11/10 07:48:12;;;;;;;8.33;5.80;;;13.30;99.90;;;;;;5074874;28;20551;-69
2022/11/10 07:50:37;;;;;;;10.30;8.13;;;13.30;99.90;;;;;;5073434;28;20211;-70
2022/11/10 07:53:09;;;;;;;8.77;6.97;;;13.30;99.90;;;;;;5073829;28;20471;-69
2022/11/10 07:55:36;;;;;;;6.23;5.40;;;13.40;99.90;;;;;;5075136;28;20238;-69
2022/11/10 07:58:02;;;;;;;5.33;4.43;;;13.60;99.90;;;;;;5074832;28;20415;-69
2022/11/10 08:00:27;;;;;;;7.10;3.90;;;13.40;99.90;;;;;;5075162;28;20389;-70
2022/11/10 08:02:59;;;;;;;5.30;3.47;;;13.30;99.90;;;;;;5074454;28;20192;-70
2022/11/10 08:05:25;;;;;;;9.03;4.37;;;13.40;99.90;;;;;;5074986;28;20169;-68
2022/11/10 08:07:52;;;;;;;7.37;4.10;;;;;;;;;;5074807;28;20438;-66
2022/11/10 08:10:18;;;;;;;7.53;4.30;;;;;;;;;;5074532;28;20200;-66
2022/11/10 08:12:44;;;;;;;4.87;3.30;;;;;;;;;;5074362;28;20796;-66
2022/11/10 08:15:09;;;;;;;4.83;3.00;;;13.70;99.90;;;;;;5074828;28;20447;-68
2022/11/10 08:17:36;;;;;;;2.83;2.20;;;;;;;;;;5074471;28;20481;-67
2022/11/10 08:20:01;;;;;;;3.20;2.90;;;16.90;99.90;;;;;;5074268;28;20287;-68
2022/11/10 08:22:28;;;;;;;3.20;2.33;;;;;;;;;;5074273;28;20417;-68
2022/11/10 08:24:54;;;;;;;4.83;2.70;;;;;;;;;;5057554;28;20954;-68
2022/11/10 08:27:19;;;;;;;2.10;1.73;;;17.70;99.90;;;;;;5068172;28;20427;-68
2022/11/10 08:29:45;;;;;;;2.37;2.20;;;19.30;99.90;;;;;;5062933;28;20441;-68
2022/11/10 08:32:11;;;;;;;3.67;2.30;;;19.80;99.90;;;;;;5073754;28;20189;-67
2022/11/10 08:34:36;;;;;;;2.17;2.00;;;20.30;99.90;;;;;;5057384;28;20541;-69
2022/11/10 08:37:02;;;;;;;4.00;2.57;;;20.80;99.90;;;;;;5053983;28;20180;-69
2022/11/10 08:39:27;;;;;;;2.67;2.20;;;21.20;99.90;;;;;;5054162;28;20211;-67
2022/11/10 08:41:53;;;;;;;3.90;2.50;;;21.40;99.90;;;;;;5053971;28;20205;-67
2022/11/10 08:44:21;;;;;;;5.43;2.43;;;21.70;99.90;;;;;;5053829;28;20208;-67
2022/11/10 08:46:47;;;;;;;2.20;2.10;;;22.10;99.90;;;;;;5069477;28;20180;-70
2022/11/10 08:49:15;;;;;;;3.93;2.20;;;22.50;99.90;;;;;;5073967;28;20478;-68
2022/11/10 08:51:41;;;;;;;2.40;2.23;;;22.90;99.90;;;;;;5072725;28;20217;-68
2022/11/10 08:54:06;;;;;;;2.43;1.80;;;23.20;99.90;;;;;;5073420;28;20373;-71
2022/11/10 08:56:32;;;;;;;6.93;2.73;;;23.60;98.90;;;;;;5073548;28;20218;-70
2022/11/10 08:58:58;;;;;;;2.60;2.03;;;23.90;96.50;;;;;;5073496;28;20706;-71
2022/11/10 09:01:27;;;;;;;2.43;2.33;;;24.10;95.70;;;;;;5060513;28;20495;-69
2022/11/10 09:03:55;;;;;;;2.20;2.00;;;24.20;95.80;;;;;;5070990;28;20177;-68
2022/11/10 09:06:23;;;;;;;3.83;2.17;;;24.30;94.20;;;;;;5070153;28;20471;-73
2022/11/10 09:08:49;;;;;;;2.63;2.40;;;24.50;93.60;;;;;;5073068;28;20437;-67
2022/11/10 09:11:14;;;;;;;2.63;2.23;;;24.80;94.60;;;;;;5072958;28;20385;-70
2022/11/10 09:13:40;;;;;;;2.70;2.50;;;25.00;93.40;;;;;;5071858;28;20677;-69
2022/11/10 09:16:11;;;;;;;3.00;2.70;;;25.10;93.50;;;;;;5072060;28;20209;-69
2022/11/10 09:18:40;;;;;;;2.20;2.00;;;24.80;92.90;;;;;;5073199;28;20169;-68
2022/11/10 09:21:10;;;;;;;2.37;2.17;;;24.20;91.40;;;;;;5072699;28;20462;-64
2022/11/10 09:23:39;;;;;;;2.63;2.27;;;23.90;92.90;;;;;;5073220;28;20462;-65
2022/11/10 09:26:06;;;;;;;3.50;2.97;;;23.90;93.30;;;;;;5073448;28;20390;-65
2022/11/10 09:28:32;;;;;;;2.10;2.00;;;23.80;93.20;;;;;;5073248;28;20411;-65
2022/11/10 09:30:57;;;;;;;3.10;1.63;;;23.90;93.80;;;;;;5073205;28;20386;-64
2022/11/10 09:33:25;;;;;;;1.00;1.00;;;23.90;92.00;;;;;;5073461;28;20652;-65
2022/11/10 09:35:57;;;;;;;5.90;1.57;;;24.00;91.50;;;;;;5073093;28;20169;-65
2022/11/10 09:38:23;;;;;;;2.13;1.30;;;24.30;90.70;;;;;;5073474;28;20396;-65
2022/11/10 09:41:02;;;;;;;1.50;1.40;;;24.40;88.90;;;;;;5072765;28;20454;-65
2022/11/10 09:43:42;;;;;;;1.43;1.33;;;24.50;90.00;;;;;;5073080;28;20672;-65
2022/11/10 09:46:22;;;;;;;2.00;1.17;;;24.50;89.70;;;;;;5072833;28;20391;-66
2022/11/10 09:48:56;;;;;;;1.60;1.03;;;24.50;88.40;;;;;;5070128;28;20873;-69
2022/11/10 09:51:29;;;;;;;1.20;1.20;;;24.50;86.50;;;;;;5072879;28;20373;-69
2022/11/10 09:54:06;;;;;;;1.67;1.00;;;24.40;87.00;;;;;;5071892;28;20849;-68
2022/11/10 09:56:33;;;;;;;2.40;2.23;;;24.40;86.30;;;;;;5073708;28;20458;-67
2022/11/10 09:59:02;;;;;;;2.63;1.40;;;24.40;86.70;;;;;;5074680;28;20414;-66
2022/11/10 10:01:57;;;;;;;1.27;1.20;;;24.40;87.00;;;;;;5072726;28;20977;-67
2022/11/10 10:04:55;;;;;;;1.90;1.70;;;24.30;86.00;;;;;;5072556;28;20378;-67
2022/11/10 10:07:38;;;;;;;1.33;1.10;;;24.10;85.70;;;;;;5068559;28;20419;-67
2022/11/10 10:10:28;;;;;;;1.97;1.17;;;23.80;85.40;;;;;;5072943;28;20396;-67
2022/11/10 10:13:35;;;;;;;1.97;1.70;;;23.40;86.50;;;;;;5072532;28;20423;-67
2022/11/10 10:16:23;;;;;;;1.13;1.10;;;23.10;87.70;;;;;;5051829;28;20474;-66
2022/11/10 10:18:54;;;;;;;1.50;1.40;;;22.90;88.30;;;;;;5052612;28;20387;-68
2022/11/10 10:21:57;;;;;;;3.23;1.33;;;22.90;89.10;;;;;;5052021;28;20499;-69
2022/11/10 10:24:26;;;;;;;1.17;1.10;;;22.80;89.80;;;;;;5052907;28;20703;-69
2022/11/10 10:26:59;;;;;;;1.90;1.20;;;22.60;88.90;;;;;;5052802;28;20424;-68
2022/11/10 10:29:30;;;;;;;1.10;1.10;;;22.60;89.80;;;;;;5052752;28;20393;-68
2022/11/10 10:31:57;;;;;;;1.87;1.50;;;22.50;89.70;;;;;;5052276;28;20499;-66
2022/11/10 10:34:27;;;;;;;1.30;1.20;;;22.50;90.00;;;;;;5052527;28;20814;-66
2022/11/10 10:36:52;;;;;;;2.10;1.10;;;22.50;90.10;;;;;;5051265;28;20537;-66
2022/11/10 10:39:42;;;;;;;4.63;1.43;;;22.40;90.30;;;;;;5052568;28;20417;-68
2022/11/10 10:42:26;;;;;;;0.90;0.90;;;22.30;90.40;;;;;;5051960;28;20209;-68
2022/11/10 10:45:11;;;;;;;1.77;1.30;;;22.20;90.40;;;;;;5052466;28;20391;-69
2022/11/10 10:47:37;;;;;;;1.43;0.77;;;22.20;90.90;;;;;;5052631;28;20479;-68
2022/11/10 10:50:27;;;;;;;2.87;2.53;;;22.10;91.00;;;;;;5052749;28;20392;-67
2022/11/10 10:53:12;;;;;;;2.17;1.53;;;21.90;90.70;;;;;;5052122;28;20407;-68
2022/11/10 10:55:44;;;;;;;1.40;1.30;;;21.80;90.70;;;;;;5052718;28;20746;-68
2022/11/10 10:58:23;;;;;;;1.23;1.10;;;21.40;90.20;;;;;;5055631;28;20402;-69
2022/11/10 11:01:14;;;;;;;1.23;0.87;;;20.70;90.30;;;;;;5054635;28;20474;-67
2022/11/10 11:03:44;;;;;;;1.07;0.97;;;19.90;90.70;;;;;;5050226;28;20428;-67
2022/11/10 11:06:15;;;;;;;2.30;1.03;;;19.40;91.50;;;;;;5056354;28;20404;-69
2022/11/10 11:08:55;;;;;;;2.30;1.00;;;18.80;92.20;;;;;;5056261;28;20771;-67
2022/11/10 11:11:31;;;;;;;0.77;0.70;;;18.30;93.10;;;;;;5055597;28;20407;-68
2022/11/10 11:14:22;;;;;;;2.10;0.70;;;18.00;93.80;;;;;;5056065;28;20490;-68
2022/11/10 11:16:54;;;;;;;2.83;1.30;;;17.70;94.30;;;;;;5055633;28;20726;-68
2022/11/10 11:19:23;;;;;;;1.20;1.17;;;17.40;94.40;;;;;;5056080;28;20962;-68
2022/11/10 11:22:23;;;;;;;2.97;0.97;;;17.10;95.50;;;;;;5058195;28;20794;-68
2022/11/10 11:25:03;;;;;;;0.93;0.80;;;17.00;95.10;;;;;;5074413;28;20509;-67
2022/11/10 11:27:52;;;;;;;1.87;0.90;;;16.80;94.80;;;;;;5065664;28;20738;-67
2022/11/10 11:30:22;;;;;;;2.00;1.33;;;16.70;95.60;;;;;;5045023;28;20445;-67
2022/11/10 11:32:57;;;;;;;0.97;0.93;;;16.70;96.00;;;;;;5068838;28;20785;-70
2022/11/10 11:35:32;;;;;;;2.03;1.93;;;16.70;96.80;;;;;;5071747;28;20415;-66
2022/11/10 11:38:24;;;;;;;2.00;0.83;;;16.70;97.40;;;;;;5062405;28;20424;-68
2022/11/10 11:41:00;;;;;;;0.70;0.70;;;16.70;96.90;;;;;;5072874;28;20453;-67
2022/11/10 11:43:35;;;;;;;1.57;0.90;;;16.80;96.50;;;;;;5075590;28;20506;-66
2022/11/10 11:46:28;;;;;;;2.20;0.83;;;16.90;96.20;;;;;;5075178;28;20403;-66
2022/11/10 11:48:59;;;;;;;1.00;1.00;;;16.90;95.70;;;;;;5073861;28;20411;-64
2022/11/10 11:52:03;;;;;;;2.10;0.67;;;17.00;95.40;;;;;;5073990;28;20414;-67
2022/11/10 11:54:46;;;;;;;2.10;0.87;;;16.90;96.20;;;;;;5055431;28;20950;-68
2022/11/10 11:57:38;;;;;;;1.53;1.10;;;16.70;96.10;;;;;;5061042;28;20430;-68
2022/11/10 12:00:15;;;;;;;1.17;0.90;;;16.70;96.50;;;;;;5074257;28;20428;-67
2022/11/10 12:02:52;;;;;;;1.27;1.10;;;16.60;96.00;;;;;;5074074;28;20876;-67
2022/11/10 12:06:04;;;;;;;1.23;1.13;;;16.60;96.20;;;;;;5073784;28;20917;-65
2022/11/10 12:08:36;;;;;;;0.97;0.97;;;16.50;96.30;;;;;;5012635;28;20468;-65
2022/11/10 12:11:28;;;;;;;3.80;1.03;;;16.40;97.20;;;;;;5012705;28;20449;-64
2022/11/10 12:14:03;;;;;;;0.90;0.90;;;16.30;97.70;;;;;;5013263;28;20420;-66
2022/11/10 12:16:32;;;;;;;0.80;0.80;;;16.20;98.30;;;;;;5012484;28;20413;-66
2022/11/10 12:19:19;;;;;;;1.47;1.03;;;16.10;98.20;;;;;;5012794;28;20425;-65
2022/11/10 12:21:56;;;;;;;1.40;1.00;;;16.00;98.40;;;;;;5008052;28;20462;-66
2022/11/10 12:24:39;;;;;;;1.77;1.40;;;16.00;98.00;;;;;;5012744;28;20462;-66
2022/11/10 12:27:13;;;;;;;1.00;0.90;;;15.90;98.30;;;;;;5012697;28;20449;-66
2022/11/10 12:29:47;;;;;;;0.73;0.73;;;15.90;98.00;;;;;;5012613;28;20405;-66
2022/11/10 12:32:25;;;;;;;0.83;0.83;;;15.90;97.50;;;;;;5011711;28;20449;-65
2022/11/10 12:34:57;;;;;;;2.17;1.40;;;15.80;97.70;;;;;;5012926;28;20409;-66
2022/11/10 12:37:39;;;;;;;1.13;1.00;;;15.90;97.90;;;;;;5011614;28;20428;-65
2022/11/10 12:40:19;;;;;;;0.70;0.70;;;15.90;99.00;;;;;;5066466;28;20457;-66
2022/11/10 12:42:51;;;;;;;1.07;1.00;;;15.90;98.20;;;;;;5073225;28;20423;-67
2022/11/10 12:45:25;;;;;;;0.73;0.73;;;15.80;98.90;;;;;;5074313;28;20494;-66
2022/11/10 12:47:52;;;;;;;1.00;1.00;;;15.90;97.90;;;;;;5074004;28;20412;-67
2022/11/10 12:50:23;;;;;;;1.40;1.20;;;15.70;98.40;;;;;;5055876;28;20423;-65
2022/11/10 12:52:52;;;;;;;0.80;0.80;;;15.70;98.60;;;;;;5072101;28;20828;-66
2022/11/10 12:55:23;;;;;;;0.93;0.87;;;15.70;98.80;;;;;;5074125;28;20458;-66
2022/11/10 12:57:49;;;;;;;1.63;1.30;;;15.70;98.30;;;;;;5072462;28;20523;-67
2022/11/10 13:00:27;;;;;;;1.20;0.83;;;15.70;98.40;;;;;;5073928;28;20745;-67
2022/11/10 13:02:55;;;;;;;3.00;1.70;;;15.70;98.50;;;;;;5072232;28;20280;-66
2022/11/10 13:05:26;;;;;;;1.07;0.80;;;15.70;98.70;;;;;;5073757;28;20832;-66
2022/11/10 13:08:05;;;;;;;0.80;0.80;;;15.60;98.00;;;;;;5073938;28;20450;-67
2022/11/10 13:10:31;;;;;;;1.03;1.03;;;15.50;98.00;;;;;;5072705;28;20423;-66
2022/11/10 13:13:03;;;;;;;1.37;1.20;;;15.70;98.20;;;;;;5073371;28;20939;-66
2022/11/10 13:15:50;;;;;;;0.90;0.90;;;15.70;98.40;;;;;;5073726;28;20403;-67
2022/11/10 13:18:31;;;;;;;0.60;0.60;;;15.60;98.40;;;;;;5069789;28;20764;-67
2022/11/10 13:20:57;;;;;;;2.13;0.90;;;15.60;98.60;;;;;;5071226;28;20462;-66
2022/11/10 13:23:54;;;;;;;1.43;0.80;;;15.60;97.60;;;;;;5073524;28;20465;-66
2022/11/10 13:26:38;;;;;;;2.20;1.17;;;15.60;97.90;;;;;;5073636;28;20817;-66
2022/11/10 13:29:33;;;;;;;2.70;0.80;;;15.60;98.20;;;;;;5073586;28;20457;-66
2022/11/10 13:32:26;;;;;;;0.67;0.67;;;15.60;98.60;;;;;;5073077;28;20469;-66
2022/11/10 13:34:52;;;;;;;0.90;0.90;;;15.60;98.70;;;;;;5073324;28;20449;-67
2022/11/10 13:37:33;;;;;;;4.83;1.33;;;15.60;98.60;;;;;;5073274;28;20461;-66
2022/11/10 13:40:17;;;;;;;2.27;1.00;;;15.70;98.80;;;;;;5073096;28;20438;-67
2022/11/10 13:43:03;;;;;;;0.67;0.67;;;15.60;99.10;;;;;;5072895;28;20507;-68
2022/11/10 13:45:35;;;;;;;3.37;0.93;;;15.60;98.80;;;;;;5073184;28;20405;-66
2022/11/10 13:48:12;;;;;;;1.10;1.00;;;15.70;98.70;;;;;;5073011;28;20926;-65
2022/11/10 13:51:05;;;;;;;1.83;0.70;;;15.60;98.30;;;;;;5072786;28;20411;-67
2022/11/10 13:53:36;;;;;;;1.27;0.80;;;15.60;98.70;;;;;;5073169;28;20509;-67
2022/11/10 13:56:20;;;;;;;0.83;0.60;;;15.60;98.50;;;;;;5073354;28;20478;-67
2022/11/10 13:58:46;;;;;;;1.40;0.90;;;15.50;99.00;;;;;;5073154;28;20414;-67
2022/11/10 14:01:17;;;;;;;0.80;0.80;;;15.50;99.70;;;;;;5072635;28;20447;-67
2022/11/10 14:03:46;;;;;;;0.90;0.90;;;15.50;99.90;;;;;;5072890;28;20423;-66
2022/11/10 14:06:24;;;;;;;0.63;0.63;;;15.50;99.40;;;;;;5073161;28;20954;-66
2022/11/10 14:09:08;;;;;;;0.87;0.60;;;15.50;98.20;;;;;;5072952;28;20402;-66
2022/11/10 14:11:39;;;;;;;0.70;0.70;;;15.50;98.20;;;;;;5072879;28;20430;-67
2022/11/10 14:14:22;;;;;;;1.43;0.83;;;15.50;98.40;;;;;;5072984;28;20821;-67
2022/11/10 14:16:48;;;;;;;3.80;1.10;;;15.40;98.80;;;;;;5073105;28;20560;-67
2022/11/10 14:19:42;;;;;;;0.80;0.80;;;15.40;99.10;;;;;;5071746;28;20405;-67
2022/11/10 14:22:34;;;;;;;1.20;0.80;;;15.30;99.30;;;;;;5070942;28;20483;-65
2022/11/10 14:25:36;;;;;;;0.93;0.90;;;15.30;99.40;;;;;;5072234;28;20406;-67
2022/11/10 14:28:02;;;;;;;0.70;0.70;;;15.30;99.40;;;;;;5072664;28;20434;-66
2022/11/10 14:30:32;;;;;;;1.17;0.77;;;15.30;99.50;;;;;;5071634;28;20793;-66
2022/11/10 14:33:08;;;;;;;1.00;1.00;;;15.30;99.20;;;;;;5075612;28;20444;-67
2022/11/10 14:35:47;;;;;;;0.87;0.60;;;15.30;99.20;;;;;;5077096;28;20425;-66
2022/11/10 14:38:17;;;;;;;1.20;1.00;;;15.30;99.30;;;;;;5076891;28;20408;-67
2022/11/10 14:40:43;;;;;;;0.90;0.90;;;15.30;99.10;;;;;;5076841;28;20989;-67
2022/11/10 14:43:27;;;;;;;0.80;0.80;;;15.20;99.70;;;;;;5076807;28;20498;-65
2022/11/10 14:45:53;;;;;;;1.37;0.97;;;15.10;99.70;;;;;;5076723;28;20168;-67
2022/11/10 14:48:22;;;;;;;3.03;1.00;;;15.10;99.90;;;;;;5076536;28;20395;-66
2022/11/10 14:50:51;;;;;;;1.43;1.03;;;15.00;99.60;;;;;;5076263;28;20422;-67
2022/11/10 14:53:30;;;;;;;1.23;1.00;;;14.90;99.90;;;;;;5076278;28;20505;-66
2022/11/10 14:55:57;;;;;;;1.27;0.90;;;14.90;99.90;;;;;;5076401;28;20406;-66
2022/11/10 14:58:34;;;;;;;2.23;1.10;;;14.80;99.90;;;;;;5075024;28;20893;-67
2022/11/10 15:01:02;;;;;;;1.53;0.90;;;14.80;99.90;;;;;;5075909;28;20453;-66
2022/11/10 15:03:33;;;;;;;1.77;0.90;;;14.70;99.90;;;;;;5076036;28;20505;-67
2022/11/10 15:05:59;;;;;;;2.47;2.13;;;14.50;99.90;;;;;;5076160;28;20929;-67
2022/11/10 15:08:28;;;;;;;4.37;2.00;;;14.50;99.90;;;;;;5076210;28;20402;-67
2022/11/10 15:10:57;;;;;;;0.97;0.97;;;14.40;99.90;;;;;;5075687;28;20441;-67
2022/11/10 15:13:26;;;;;;;1.27;0.93;;;14.30;99.90;;;;;;5075828;28;20500;-66
2022/11/10 15:16:11;;;;;;;1.20;1.10;;;14.30;99.90;;;;;;5076054;28;20455;-67
2022/11/10 15:18:36;;;;;;;1.70;1.60;;;14.20;99.90;;;;;;5074532;28;20449;-67
2022/11/10 15:21:08;;;;;;;2.73;1.70;;;14.20;99.90;;;;;;5073884;28;20881;-66
2022/11/10 15:23:39;;;;;;;2.60;1.37;;;14.10;99.90;;;;;;5058154;28;20193;-66
2022/11/10 15:26:13;;;;;;;2.00;1.40;;;14.10;99.90;;;;;;5055729;28;20767;-67
2022/11/10 15:28:41;;;;;;;4.43;2.40;;;14.10;99.90;;;;;;5056087;28;20450;-67
2022/11/10 15:31:11;;;;;;;1.20;1.10;;;14.00;99.90;;;;;;5055298;28;20435;-67
2022/11/10 15:33:43;;;;;;;1.30;1.10;;;13.90;99.90;;;;;;5055616;28;20780;-67
2022/11/10 15:36:21;;;;;;;1.53;1.43;;;13.90;99.90;;;;;;5054225;28;20783;-66
2022/11/10 15:39:11;;;;;;;5.10;1.63;;;13.80;99.90;;;;;;5055472;28;20447;-67
2022/11/10 15:41:42;;;;;;;2.40;1.63;;;13.80;99.90;;;;;;5054886;28;20432;-66
2022/11/10 15:44:14;;;;;;;3.40;1.97;;;13.70;99.90;;;;;;5054846;28;20396;-66
2022/11/10 15:46:41;;;;;;;3.60;2.33;;;13.60;99.90;;;;;;5055474;28;20412;-65
2022/11/10 15:49:23;;;;;;;1.70;1.60;;;13.50;99.90;;;;;;5055350;28;20790;-66
2022/11/10 15:51:57;;;;;;;2.23;2.03;;;13.40;99.90;;;;;;5054777;28;20442;-67
2022/11/10 15:54:25;;;;;;;2.03;1.50;;;13.30;99.90;;;;;;5055257;28;20406;-65
2022/11/10 15:56:51;;;;;;;4.23;2.53;;;13.20;99.90;;;;;;5053845;28;20426;-65
2022/11/10 15:59:20;;;;;;;3.77;1.87;;;13.10;99.90;;;;;;5055053;28;20385;-66
2022/11/10 16:01:45;;;;;;;2.43;2.20;;;13.10;99.90;;;;;;5054477;28;20201;-66
2022/11/10 16:04:11;;;;;;;2.13;1.97;;;13.00;99.90;;;;;;5054946;28;20510;-66
2022/11/10 16:06:38;;;;;;;4.40;2.40;;;13.00;99.90;;;;;;5055212;28;20260;-66
2022/11/10 16:09:05;;;;;;;2.43;2.20;;;12.90;99.90;;;;;;5055038;28;20385;-67
2022/11/10 16:11:31;;;;;;;2.30;2.10;;;12.90;99.90;;;;;;5054599;28;20477;-66
2022/11/10 16:13:57;;;;;;;4.23;3.20;;;12.80;99.90;;;;;;5054842;28;20510;-66
2022/11/10 16:16:23;;;;;;;8.20;5.80;;;12.70;99.90;;;;;;5054780;28;20902;-67
2022/11/10 16:18:50;;;;;;;4.17;3.33;;;12.70;99.90;;;;;;5054731;28;20414;-66
2022/11/10 16:21:19;;;;;;;3.87;2.70;;;12.60;99.90;;;;;;5053585;28;20553;-65
2022/11/10 16:23:47;;;;;;;8.60;2.77;;;12.60;99.90;;;;;;5072105;28;20544;-66
2022/11/10 16:26:16;;;;;;;4.17;2.70;;;12.50;99.90;;;;;;5074465;28;20534;-67
2022/11/10 16:28:43;;;;;;;2.70;2.37;;;12.40;99.90;;;;;;5074395;28;20407;-67
2022/11/10 16:31:12;;;;;;;4.37;3.90;;;12.40;99.90;;;;;;5074270;28;20410;-66
2022/11/10 16:33:39;;;;;;;19.67;11.40;;;12.30;99.90;;;;;;5074476;28;20434;-67
2022/11/10 16:36:05;;;;;;;27.40;19.10;;;12.20;99.90;;;;;;5074535;28;20421;-67
2022/11/10 16:38:31;;;;;;;36.83;26.00;;;12.20;99.90;;;;;;5074315;28;20408;-66
2022/11/10 16:41:02;;;;;;;8.73;6.10;;;12.10;99.90;;;;;;5074518;28;20480;-68
2022/11/10 16:43:29;;;;;;;5.20;4.80;;;12.00;99.90;;;;;;5074164;28;20421;-67
2022/11/10 16:45:58;;;;;;;2.97;2.60;;;11.90;99.90;;;;;;5074151;28;20392;-67
2022/11/10 16:48:29;;;;;;;3.93;2.27;;;11.80;99.90;;;;;;5074029;28;20405;-67
2022/11/10 16:50:57;;;;;;;4.23;3.80;;;11.80;99.90;;;;;;5073994;28;20416;-68
2022/11/10 16:53:30;;;;;;;3.80;3.50;;;11.60;99.90;;;;;;5073881;28;20485;-69
2022/11/10 16:55:56;;;;;;;4.22;2.95;;;11.50;99.90;;;;;;5073270;28;20452;-69
2022/11/10 16:58:27;;;;;;;2.42;2.30;;;11.40;99.90;;;;;;5073989;28;20173;-68
2022/11/10 17:00:56;;;;;;;2.85;2.58;;;11.40;99.90;;;;;;5073449;28;20338;-69
2022/11/10 17:03:36;;;;;;;3.88;3.30;;;11.30;99.90;;;;;;5073860;28;20191;-67
2022/11/10 17:06:04;;;;;;;3.30;3.10;;;11.30;99.90;;;;;;5073726;28;20571;-69
2022/11/10 17:08:34;;;;;;;4.03;3.72;;;11.20;99.90;;;;;;5073722;28;20164;-69
2022/11/10 17:11:00;;;;;;;6.55;4.35;;;11.20;99.90;;;;;;5073428;28;20161;-66
2022/11/10 17:13:26;;;;;;;6.53;4.03;;;11.20;99.90;;;;;;5073498;28;20259;-68
2022/11/10 17:15:57;;;;;;;4.73;4.17;;;11.10;99.90;;;;;;5073867;28;20167;-66
2022/11/10 17:18:23;;;;;;;6.18;4.85;;;11.00;99.90;;;;;;5073540;28;20404;-66
2022/11/10 17:20:51;;;;;;;5.17;3.60;;;11.00;99.90;;;;;;5072921;28;20259;-66
2022/11/10 17:23:20;;;;;;;4.07;3.05;;;10.90;99.90;;;;;;5058160;28;20429;-68
2022/11/10 17:25:46;;;;;;;5.65;3.55;;;10.90;99.90;;;;;;5053744;28;20573;-68
2022/11/10 17:28:14;;;;;;;3.13;2.85;;;10.80;99.90;;;;;;5052317;28;20621;-69
2022/11/10 17:30:41;;;;;;;2.90;2.67;;;10.80;99.90;;;;;;5052967;28;20593;-66
2022/11/10 17:33:11;;;;;;;7.43;3.15;;;10.70;99.90;;;;;;5070657;28;20212;-69
2022/11/10 17:35:48;;;;;;;3.15;2.80;;;10.60;99.90;;;;;;5073442;28;20179;-69
2022/11/10 17:38:35;;;;;;;2.65;2.30;;;10.50;99.90;;;;;;5073696;28;20211;-71
2022/11/10 17:41:00;;;;;;;3.35;3.05;;;10.40;99.90;;;;;;5072920;28;20193;-69
2022/11/10 17:43:26;;;;;;;4.63;2.80;;;10.30;99.90;;;;;;5073034;28;20279;-69
2022/11/10 17:45:51;;;;;;;5.70;3.60;;;10.20;99.90;;;;;;5073121;28;20169;-71
2022/11/10 17:48:17;;;;;;;4.70;4.00;;;10.10;99.90;;;;;;5073226;28;20247;-68
2022/11/10 17:50:45;;;;;;;4.37;3.23;;;10.00;99.90;;;;;;5072747;28;20191;-69
2022/11/10 17:53:24;;;;;;;2.97;2.70;;;10.00;99.90;;;;;;5073151;28;20184;-70
2022/11/10 17:55:50;;;;;;;2.45;2.35;;;9.90;99.90;;;;;;5073356;28;20608;-69
2022/11/10 17:58:17;;;;;;;2.20;1.80;;;9.80;99.90;;;;;;5072928;28;20169;-69
2022/11/10 18:00:43;;;;;;;2.00;1.90;;;9.80;99.90;;;;;;5072570;28;20192;-70
2022/11/10 18:03:20;;;;;;;2.55;2.28;;;9.70;99.90;;;;;;5072902;28;20556;-71
2022/11/10 18:05:46;;;;;;;5.00;2.60;;;9.60;99.90;;;;;;5073062;28;20168;-68
2022/11/10 18:08:13;;;;;;;2.30;2.20;;;9.60;99.90;;;;;;5072813;28;20227;-69
2022/11/10 18:10:59;;;;;;;3.40;2.10;;;9.50;99.90;;;;;;5072548;28;20221;-70
2022/11/10 18:13:25;;;;;;;2.33;2.22;;;9.50;99.90;;;;;;5072937;28;20699;-69
2022/11/10 18:15:53;;;;;;;2.57;2.40;;;9.50;99.90;;;;;;5072875;28;20257;-69
2022/11/10 18:18:18;;;;;;;2.55;2.35;;;9.50;99.90;;;;;;5072870;28;20642;-69
2022/11/10 18:20:47;;;;;;;2.93;2.73;;;9.50;99.90;;;;;;5072212;28;20287;-69
2022/11/10 18:23:13;;;;;;;2.42;2.22;;;9.40;99.90;;;;;;5056261;28;20649;-70
2022/11/10 18:25:40;;;;;;;3.10;2.13;;;9.40;99.90;;;;;;5052678;28;20246;-71
2022/11/10 18:28:07;;;;;;;2.80;2.60;;;9.40;99.90;;;;;;5052905;28;20193;-69
2022/11/10 18:30:33;;;;;;;3.30;3.05;;;9.40;99.90;;;;;;5052577;28;20214;-69
2022/11/10 18:33:02;;;;;;;3.10;2.90;;;9.40;99.90;;;;;;5052560;28;20223;-70
2022/11/10 18:35:28;;;;;;;3.42;3.13;;;9.40;99.90;;;;;;5052965;28;20177;-69